sensor_id;sensor_type;location;lat;lon;timestamp;temperature;humidity
18593;DHT22;9426;54.118;17.948;2023-03-24T00:00:22;6.60;99.90
18593;DHT22;9426;54.118;17.948;2023-03-24T00:05:45;6.60;99.90
18593;DHT22;9426;54.118;17.948;2023-03-24T00:11:12;6.60;99.90
18593;DHT22;9426;54.118;17.948;2023-03-24T00:16:39;6.60;99.90
18593;DHT22;9426;54.118;17.948;2023-03-24T00:22:04;6.70;99.90
18593;DHT22;9426;54.118;17.948;2023-03-24T00:27:29;6.80;99.90
18593;DHT22;9426;54.118;17.948;2023-03-24T00:32:57;6.90;99.90
18593;DHT22;9426;54.118;17.948;2023-03-24T00:38:23;6.90;99.90
18593;DHT22;9426;54.118;17.948;2023-03-24T00:43:49;7.10;99.90
18593;DHT22;9426;54.118;17.948;2023-03-24T00:49:13;7.10;99.90
18593;DHT22;9426;54.118;17.948;2023-03-24T00:54:38;7.20;99.90
18593;DHT22;9426;54.118;17.948;2023-03-24T01:00:06;7.20;99.90
18593;DHT22;9426;54.118;17.948;2023-03-24T01:05:36;7.30;99.90
18593;DHT22;9426;54.118;17.948;2023-03-24T01:11:00;7.30;99.90
18593;DHT22;9426;54.118;17.948;2023-03-24T01:16:26;6.80;99.90
18593;DHT22;9426;54.118;17.948;2023-03-24T01:21:51;7.20;99.90
18593;DHT22;9426;54.118;17.948;2023-03-24T01:27:16;7.30;99.90
18593;DHT22;9426;54.118;17.948;2023-03-24T01:32:41;7.20;99.90
18593;DHT22;9426;54.118;17.948;2023-03-24T01:38:08;7.20;99.90
18593;DHT22;9426;54.118;17.948;2023-03-24T01:43:33;7.30;99.90
18593;DHT22;9426;54.118;17.948;2023-03-24T01:49:01;7.30;99.90
18593;DHT22;9426;54.118;17.948;2023-03-24T01:54:28;7.30;99.90
18593;DHT22;9426;54.118;17.948;2023-03-24T01:59:58;7.30;99.90
18593;DHT22;9426;54.118;17.948;2023-03-24T02:05:46;7.30;99.90
18593;DHT22;9426;54.118;17.948;2023-03-24T02:11:11;7.40;99.90
18593;DHT22;9426;54.118;17.948;2023-03-24T02:28:45;7.40;99.90
18593;DHT22;9426;54.118;17.948;2023-03-24T02:40:21;7.40;99.90
18593;DHT22;9426;54.118;17.948;2023-03-24T02:45:57;7.40;99.90
18593;DHT22;9426;54.118;17.948;2023-03-24T02:51:26;7.30;99.90
18593;DHT22;9426;54.118;17.948;2023-03-24T02:56:56;7.30;99.90
18593;DHT22;9426;54.118;17.948;2023-03-24T03:02:54;7.30;99.90
18593;DHT22;9426;54.118;17.948;2023-03-24T03:08:20;7.20;99.90
18593;DHT22;9426;54.118;17.948;2023-03-24T03:13:49;7.10;99.90
18593;DHT22;9426;54.118;17.948;2023-03-24T03:19:17;7.10;99.90
18593;DHT22;9426;54.118;17.948;2023-03-24T03:24:45;7.10;99.90
18593;DHT22;9426;54.118;17.948;2023-03-24T03:30:16;7.00;99.90
18593;DHT22;9426;54.118;17.948;2023-03-24T03:35:43;7.00;99.90
18593;DHT22;9426;54.118;17.948;2023-03-24T03:41:09;7.00;99.90
18593;DHT22;9426;54.118;17.948;2023-03-24T03:46:35;7.10;99.90
18593;DHT22;9426;54.118;17.948;2023-03-24T03:52:03;7.10;99.90
18593;DHT22;9426;54.118;17.948;2023-03-24T03:57:27;7.10;99.90
18593;DHT22;9426;54.118;17.948;2023-03-24T04:03:30;7.00;99.90
18593;DHT22;9426;54.118;17.948;2023-03-24T04:09:04;7.10;99.90
18593;DHT22;9426;54.118;17.948;2023-03-24T04:14:54;7.00;99.90
18593;DHT22;9426;54.118;17.948;2023-03-24T04:20:44;7.00;99.90
18593;DHT22;9426;54.118;17.948;2023-03-24T04:26:15;7.10;99.90
18593;DHT22;9426;54.118;17.948;2023-03-24T04:31:54;7.10;99.90
18593;DHT22;9426;54.118;17.948;2023-03-24T04:37:27;7.10;99.90
18593;DHT22;9426;54.118;17.948;2023-03-24T04:42:57;7.10;99.90
18593;DHT22;9426;54.118;17.948;2023-03-24T04:48:23;7.10;99.90
18593;DHT22;9426;54.118;17.948;2023-03-24T04:53:59;7.10;99.90
18593;DHT22;9426;54.118;17.948;2023-03-24T04:59:25;7.10;99.90
18593;DHT22;9426;54.118;17.948;2023-03-24T05:04:49;7.10;99.90
18593;DHT22;9426;54.118;17.948;2023-03-24T05:10:30;7.10;99.90
18593;DHT22;9426;54.118;17.948;2023-03-24T05:15:53;7.10;99.90
18593;DHT22;9426;54.118;17.948;2023-03-24T05:21:33;7.10;99.90
18593;DHT22;9426;54.118;17.948;2023-03-24T05:26:59;7.10;99.90
18593;DHT22;9426;54.118;17.948;2023-03-24T05:32:24;7.20;99.90
18593;DHT22;9426;54.118;17.948;2023-03-24T05:37:48;7.20;99.90
18593;DHT22;9426;54.118;17.948;2023-03-24T05:43:13;7.30;99.90
18593;DHT22;9426;54.118;17.948;2023-03-24T05:48:49;7.40;99.90
18593;DHT22;9426;54.118;17.948;2023-03-24T05:54:14;7.50;99.90
18593;DHT22;9426;54.118;17.948;2023-03-24T05:59:42;7.50;99.90
18593;DHT22;9426;54.118;17.948;2023-03-24T06:05:24;7.60;99.90
18593;DHT22;9426;54.118;17.948;2023-03-24T06:10:49;7.70;99.90
18593;DHT22;9426;54.118;17.948;2023-03-24T06:16:17;7.80;99.90
18593;DHT22;9426;54.118;17.948;2023-03-24T06:21:51;7.90;99.90
18593;DHT22;9426;54.118;17.948;2023-03-24T06:27:20;8.00;99.90
18593;DHT22;9426;54.118;17.948;2023-03-24T06:32:49;8.10;99.90
18593;DHT22;9426;54.118;17.948;2023-03-24T06:38:13;8.30;99.90
18593;DHT22;9426;54.118;17.948;2023-03-24T06:43:38;8.50;99.90
18593;DHT22;9426;54.118;17.948;2023-03-24T06:49:04;8.70;99.90
18593;DHT22;9426;54.118;17.948;2023-03-24T06:54:27;8.80;99.90
18593;DHT22;9426;54.118;17.948;2023-03-24T06:59:53;9.00;99.90
18593;DHT22;9426;54.118;17.948;2023-03-24T07:05:21;9.20;99.90
18593;DHT22;9426;54.118;17.948;2023-03-24T07:10:45;9.30;99.90
18593;DHT22;9426;54.118;17.948;2023-03-24T07:16:09;9.50;99.90
18593;DHT22;9426;54.118;17.948;2023-03-24T07:21:35;9.60;99.90
18593;DHT22;9426;54.118;17.948;2023-03-24T07:26:59;9.50;99.90
18593;DHT22;9426;54.118;17.948;2023-03-24T07:32:23;9.50;99.90
18593;DHT22;9426;54.118;17.948;2023-03-24T07:37:48;9.60;99.90
18593;DHT22;9426;54.118;17.948;2023-03-24T07:43:12;9.50;99.90
18593;DHT22;9426;54.118;17.948;2023-03-24T07:48:54;9.60;99.90
18593;DHT22;9426;54.118;17.948;2023-03-24T07:54:23;9.70;99.90
18593;DHT22;9426;54.118;17.948;2023-03-24T07:59:48;9.80;99.90
18593;DHT22;9426;54.118;17.948;2023-03-24T08:05:35;9.90;99.90
18593;DHT22;9426;54.118;17.948;2023-03-24T08:11:13;10.10;99.90
18593;DHT22;9426;54.118;17.948;2023-03-24T08:16:37;10.10;99.90
18593;DHT22;9426;54.118;17.948;2023-03-24T08:22:01;10.00;99.90
18593;DHT22;9426;54.118;17.948;2023-03-24T08:27:26;10.20;99.90
18593;DHT22;9426;54.118;17.948;2023-03-24T08:33:02;10.00;99.90
18593;DHT22;9426;54.118;17.948;2023-03-24T08:38:26;10.10;99.90
18593;DHT22;9426;54.118;17.948;2023-03-24T08:43:52;10.30;99.90
18593;DHT22;9426;54.118;17.948;2023-03-24T08:49:17;10.60;99.90
18593;DHT22;9426;54.118;17.948;2023-03-24T08:54:41;10.90;99.90
18593;DHT22;9426;54.118;17.948;2023-03-24T09:00:06;11.00;99.90
18593;DHT22;9426;54.118;17.948;2023-03-24T09:05:36;11.00;99.90
18593;DHT22;9426;54.118;17.948;2023-03-24T09:11:04;11.00;99.90
18593;DHT22;9426;54.118;17.948;2023-03-24T09:16:28;11.30;99.90
18593;DHT22;9426;54.118;17.948;2023-03-24T09:21:53;11.60;99.90
18593;DHT22;9426;54.118;17.948;2023-03-24T09:27:16;11.80;99.90
18593;DHT22;9426;54.118;17.948;2023-03-24T09:32:40;12.10;99.90
18593;DHT22;9426;54.118;17.948;2023-03-24T09:38:05;12.20;99.90
18593;DHT22;9426;54.118;17.948;2023-03-24T09:43:35;12.10;99.90
18593;DHT22;9426;54.118;17.948;2023-03-24T09:49:03;12.20;99.90
18593;DHT22;9426;54.118;17.948;2023-03-24T09:54:34;12.10;99.90
18593;DHT22;9426;54.118;17.948;2023-03-24T09:59:58;11.90;99.90
18593;DHT22;9426;54.118;17.948;2023-03-24T10:05:25;12.10;99.90
18593;DHT22;9426;54.118;17.948;2023-03-24T10:10:58;12.20;99.90
18593;DHT22;9426;54.118;17.948;2023-03-24T10:16:27;12.60;99.90
18593;DHT22;9426;54.118;17.948;2023-03-24T10:21:56;12.80;99.90
18593;DHT22;9426;54.118;17.948;2023-03-24T10:27:29;13.30;99.90
18593;DHT22;9426;54.118;17.948;2023-03-24T10:32:54;13.30;99.90
18593;DHT22;9426;54.118;17.948;2023-03-24T10:38:19;13.40;99.90
18593;DHT22;9426;54.118;17.948;2023-03-24T10:43:45;13.10;99.90
18593;DHT22;9426;54.118;17.948;2023-03-24T10:49:14;13.00;99.90
18593;DHT22;9426;54.118;17.948;2023-03-24T10:54:53;13.20;99.90
18593;DHT22;9426;54.118;17.948;2023-03-24T11:00:21;13.30;99.90
18593;DHT22;9426;54.118;17.948;2023-03-24T11:05:47;13.50;99.90
18593;DHT22;9426;54.118;17.948;2023-03-24T11:11:27;13.50;99.90
18593;DHT22;9426;54.118;17.948;2023-03-24T11:17:02;13.40;99.90
18593;DHT22;9426;54.118;17.948;2023-03-24T11:22:32;13.40;99.90
18593;DHT22;9426;54.118;17.948;2023-03-24T11:27:59;13.10;99.90
18593;DHT22;9426;54.118;17.948;2023-03-24T11:33:27;13.00;99.90
18593;DHT22;9426;54.118;17.948;2023-03-24T11:38:58;13.00;99.90
18593;DHT22;9426;54.118;17.948;2023-03-24T11:44:24;12.80;99.90
18593;DHT22;9426;54.118;17.948;2023-03-24T11:49:53;12.70;99.90
18593;DHT22;9426;54.118;17.948;2023-03-24T11:55:24;12.70;99.90
18593;DHT22;9426;54.118;17.948;2023-03-24T12:00:55;12.80;99.90
18593;DHT22;9426;54.118;17.948;2023-03-24T12:06:40;12.90;99.90
18593;DHT22;9426;54.118;17.948;2023-03-24T12:12:23;12.90;99.90
18593;DHT22;9426;54.118;17.948;2023-03-24T12:17:54;13.00;99.90
18593;DHT22;9426;54.118;17.948;2023-03-24T12:23:31;12.80;99.90
18593;DHT22;9426;54.118;17.948;2023-03-24T12:29:02;12.90;99.90
18593;DHT22;9426;54.118;17.948;2023-03-24T12:34:40;12.80;99.90
18593;DHT22;9426;54.118;17.948;2023-03-24T12:40:33;12.80;99.90
18593;DHT22;9426;54.118;17.948;2023-03-24T12:46:07;12.80;99.90
18593;DHT22;9426;54.118;17.948;2023-03-24T12:51:42;12.80;99.90
18593;DHT22;9426;54.118;17.948;2023-03-24T12:57:13;12.70;99.90
18593;DHT22;9426;54.118;17.948;2023-03-24T13:02:40;12.50;99.90
18593;DHT22;9426;54.118;17.948;2023-03-24T13:08:12;12.50;99.90
18593;DHT22;9426;54.118;17.948;2023-03-24T13:13:41;12.40;99.90
18593;DHT22;9426;54.118;17.948;2023-03-24T13:19:12;12.40;99.90
18593;DHT22;9426;54.118;17.948;2023-03-24T13:24:38;12.40;99.90
18593;DHT22;9426;54.118;17.948;2023-03-24T13:30:27;12.30;99.90
18593;DHT22;9426;54.118;17.948;2023-03-24T13:36:04;12.30;99.90
18593;DHT22;9426;54.118;17.948;2023-03-24T13:41:34;12.30;99.90
18593;DHT22;9426;54.118;17.948;2023-03-24T13:47:07;12.40;99.90
18593;DHT22;9426;54.118;17.948;2023-03-24T13:52:34;12.50;99.90
18593;DHT22;9426;54.118;17.948;2023-03-24T13:58:13;12.70;99.90
18593;DHT22;9426;54.118;17.948;2023-03-24T14:03:42;12.70;99.90
18593;DHT22;9426;54.118;17.948;2023-03-24T14:09:15;12.80;99.90
18593;DHT22;9426;54.118;17.948;2023-03-24T14:20:40;12.80;99.90
18593;DHT22;9426;54.118;17.948;2023-03-24T14:26:05;12.80;99.90
18593;DHT22;9426;54.118;17.948;2023-03-24T14:31:31;12.80;99.90
18593;DHT22;9426;54.118;17.948;2023-03-24T14:36:59;13.10;99.90
18593;DHT22;9426;54.118;17.948;2023-03-24T14:48:34;13.90;99.90
18593;DHT22;9426;54.118;17.948;2023-03-24T14:54:02;14.60;99.90
18593;DHT22;9426;54.118;17.948;2023-03-24T14:59:36;15.00;99.90
18593;DHT22;9426;54.118;17.948;2023-03-24T15:05:22;15.60;99.90
18593;DHT22;9426;54.118;17.948;2023-03-24T15:10:49;15.10;99.90
18593;DHT22;9426;54.118;17.948;2023-03-24T15:16:21;14.10;99.90
18593;DHT22;9426;54.118;17.948;2023-03-24T15:21:47;13.70;99.90
18593;DHT22;9426;54.118;17.948;2023-03-24T15:27:21;13.40;99.90
18593;DHT22;9426;54.118;17.948;2023-03-24T15:32:44;13.30;99.90
18593;DHT22;9426;54.118;17.948;2023-03-24T15:38:17;12.80;99.90
18593;DHT22;9426;54.118;17.948;2023-03-24T15:43:46;12.40;99.90
18593;DHT22;9426;54.118;17.948;2023-03-24T15:49:19;12.00;99.90
18593;DHT22;9426;54.118;17.948;2023-03-24T15:54:44;11.70;99.90
18593;DHT22;9426;54.118;17.948;2023-03-24T16:00:14;11.40;99.90
18593;DHT22;9426;54.118;17.948;2023-03-24T16:05:45;11.00;99.90
18593;DHT22;9426;54.118;17.948;2023-03-24T16:11:10;10.80;99.90
18593;DHT22;9426;54.118;17.948;2023-03-24T16:16:37;10.60;99.90
18593;DHT22;9426;54.118;17.948;2023-03-24T16:22:01;10.40;99.90
18593;DHT22;9426;54.118;17.948;2023-03-24T16:27:24;10.20;99.90
18593;DHT22;9426;54.118;17.948;2023-03-24T16:32:49;10.10;99.90
18593;DHT22;9426;54.118;17.948;2023-03-24T16:38:13;10.00;99.90
18593;DHT22;9426;54.118;17.948;2023-03-24T16:43:39;9.90;99.90
18593;DHT22;9426;54.118;17.948;2023-03-24T16:49:05;9.80;99.90
18593;DHT22;9426;54.118;17.948;2023-03-24T16:54:29;9.70;99.90
18593;DHT22;9426;54.118;17.948;2023-03-24T16:59:52;9.70;99.90
18593;DHT22;9426;54.118;17.948;2023-03-24T17:05:22;9.70;99.90
18593;DHT22;9426;54.118;17.948;2023-03-24T17:10:47;9.60;99.90
18593;DHT22;9426;54.118;17.948;2023-03-24T17:16:16;9.50;99.90
18593;DHT22;9426;54.118;17.948;2023-03-24T17:21:43;9.30;99.90
18593;DHT22;9426;54.118;17.948;2023-03-24T17:27:10;9.20;99.90
18593;DHT22;9426;54.118;17.948;2023-03-24T17:32:35;9.10;99.90
18593;DHT22;9426;54.118;17.948;2023-03-24T17:38:00;8.90;99.90
18593;DHT22;9426;54.118;17.948;2023-03-24T17:43:24;8.90;99.90
18593;DHT22;9426;54.118;17.948;2023-03-24T17:48:48;8.80;99.90
18593;DHT22;9426;54.118;17.948;2023-03-24T17:54:12;8.60;99.90
18593;DHT22;9426;54.118;17.948;2023-03-24T17:59:37;8.50;99.90
18593;DHT22;9426;54.118;17.948;2023-03-24T18:05:01;8.50;99.90
18593;DHT22;9426;54.118;17.948;2023-03-24T18:10:29;8.40;99.90
18593;DHT22;9426;54.118;17.948;2023-03-24T18:15:55;8.40;99.90
18593;DHT22;9426;54.118;17.948;2023-03-24T18:21:20;8.40;99.90
18593;DHT22;9426;54.118;17.948;2023-03-24T18:26:45;8.40;99.90
18593;DHT22;9426;54.118;17.948;2023-03-24T18:32:11;8.40;99.90
18593;DHT22;9426;54.118;17.948;2023-03-24T18:37:36;8.30;99.90
18593;DHT22;9426;54.118;17.948;2023-03-24T18:43:01;8.10;99.90
18593;DHT22;9426;54.118;17.948;2023-03-24T18:48:24;7.80;99.90
18593;DHT22;9426;54.118;17.948;2023-03-24T18:53:48;7.80;99.90
18593;DHT22;9426;54.118;17.948;2023-03-24T18:59:13;7.70;99.90
18593;DHT22;9426;54.118;17.948;2023-03-24T19:04:37;7.50;99.90
18593;DHT22;9426;54.118;17.948;2023-03-24T19:10:00;7.50;99.90
18593;DHT22;9426;54.118;17.948;2023-03-24T19:15:26;7.50;99.90
18593;DHT22;9426;54.118;17.948;2023-03-24T19:20:54;7.40;99.90
18593;DHT22;9426;54.118;17.948;2023-03-24T19:26:17;7.40;99.90
18593;DHT22;9426;54.118;17.948;2023-03-24T19:31:43;7.30;99.90
18593;DHT22;9426;54.118;17.948;2023-03-24T19:37:06;7.20;99.90
18593;DHT22;9426;54.118;17.948;2023-03-24T19:42:31;7.10;99.90
18593;DHT22;9426;54.118;17.948;2023-03-24T19:47:56;6.90;99.90
18593;DHT22;9426;54.118;17.948;2023-03-24T19:53:20;6.80;99.90
18593;DHT22;9426;54.118;17.948;2023-03-24T19:58:44;6.80;99.90
18593;DHT22;9426;54.118;17.948;2023-03-24T20:04:09;6.80;99.90
18593;DHT22;9426;54.118;17.948;2023-03-24T20:09:32;6.80;99.90
18593;DHT22;9426;54.118;17.948;2023-03-24T20:14:56;6.60;99.90
18593;DHT22;9426;54.118;17.948;2023-03-24T20:20:21;6.50;99.90
18593;DHT22;9426;54.118;17.948;2023-03-24T20:25:45;6.30;99.90
18593;DHT22;9426;54.118;17.948;2023-03-24T20:31:09;6.30;99.90
18593;DHT22;9426;54.118;17.948;2023-03-24T20:36:34;6.40;99.90
18593;DHT22;9426;54.118;17.948;2023-03-24T20:41:59;6.10;99.90
18593;DHT22;9426;54.118;17.948;2023-03-24T20:47:22;5.90;99.90
18593;DHT22;9426;54.118;17.948;2023-03-24T20:52:47;5.90;99.90
18593;DHT22;9426;54.118;17.948;2023-03-24T20:58:11;6.00;99.90
18593;DHT22;9426;54.118;17.948;2023-03-24T21:03:34;6.00;99.90
18593;DHT22;9426;54.118;17.948;2023-03-24T21:09:00;6.10;99.90
18593;DHT22;9426;54.118;17.948;2023-03-24T21:14:23;6.30;99.90
18593;DHT22;9426;54.118;17.948;2023-03-24T21:19:47;6.30;99.90
18593;DHT22;9426;54.118;17.948;2023-03-24T21:25:13;6.40;99.90
18593;DHT22;9426;54.118;17.948;2023-03-24T21:30:37;6.30;99.90
18593;DHT22;9426;54.118;17.948;2023-03-24T21:36:01;6.20;99.90
18593;DHT22;9426;54.118;17.948;2023-03-24T21:41:25;6.10;99.90
18593;DHT22;9426;54.118;17.948;2023-03-24T21:46:49;6.00;99.90
18593;DHT22;9426;54.118;17.948;2023-03-24T21:52:13;5.90;99.90
18593;DHT22;9426;54.118;17.948;2023-03-24T21:57:40;5.70;99.90
18593;DHT22;9426;54.118;17.948;2023-03-24T22:03:04;5.60;99.90
18593;DHT22;9426;54.118;17.948;2023-03-24T22:08:29;5.40;99.90
18593;DHT22;9426;54.118;17.948;2023-03-24T22:13:53;5.10;99.90
18593;DHT22;9426;54.118;17.948;2023-03-24T22:19:17;5.00;99.90
18593;DHT22;9426;54.118;17.948;2023-03-24T22:24:41;5.30;99.90
18593;DHT22;9426;54.118;17.948;2023-03-24T22:30:08;5.30;99.90
18593;DHT22;9426;54.118;17.948;2023-03-24T22:35:32;5.30;99.90
18593;DHT22;9426;54.118;17.948;2023-03-24T22:40:56;5.40;99.90
18593;DHT22;9426;54.118;17.948;2023-03-24T22:46:22;5.50;99.90
18593;DHT22;9426;54.118;17.948;2023-03-24T22:51:45;5.50;99.90
18593;DHT22;9426;54.118;17.948;2023-03-24T22:57:09;5.50;99.90
18593;DHT22;9426;54.118;17.948;2023-03-24T23:02:34;5.50;99.90
18593;DHT22;9426;54.118;17.948;2023-03-24T23:07:57;5.70;99.90
18593;DHT22;9426;54.118;17.948;2023-03-24T23:13:21;5.90;99.90
18593;DHT22;9426;54.118;17.948;2023-03-24T23:18:47;6.00;99.90
18593;DHT22;9426;54.118;17.948;2023-03-24T23:24:12;6.00;99.90
18593;DHT22;9426;54.118;17.948;2023-03-24T23:29:37;6.00;99.90
18593;DHT22;9426;54.118;17.948;2023-03-24T23:35:04;6.00;99.90
18593;DHT22;9426;54.118;17.948;2023-03-24T23:40:28;5.80;99.90
18593;DHT22;9426;54.118;17.948;2023-03-24T23:45:53;5.80;99.90
18593;DHT22;9426;54.118;17.948;2023-03-24T23:51:18;5.70;99.90
18593;DHT22;9426;54.118;17.948;2023-03-24T23:56:43;5.60;99.90
